sensor_id;sensor_type;location;lat;lon;timestamp;temperature;humidity
60027;DHT22;45891;53.006;6.512;2024-03-07T00:01:55;4.20;99.90
60027;DHT22;45891;53.006;6.512;2024-03-07T00:04:21;4.20;99.90
60027;DHT22;45891;53.006;6.512;2024-03-07T00:06:47;4.20;99.90
60027;DHT22;45891;53.006;6.512;2024-03-07T00:09:14;4.20;99.90
60027;DHT22;45891;53.006;6.512;2024-03-07T00:11:40;4.20;99.90
60027;DHT22;45891;53.006;6.512;2024-03-07T00:14:06;4.20;99.90
60027;DHT22;45891;53.006;6.512;2024-03-07T00:16:33;4.20;99.90
60027;DHT22;45891;53.006;6.512;2024-03-07T00:19:02;4.10;99.90
60027;DHT22;45891;53.006;6.512;2024-03-07T00:21:28;4.10;99.90
60027;DHT22;45891;53.006;6.512;2024-03-07T00:23:54;4.10;99.90
60027;DHT22;45891;53.006;6.512;2024-03-07T00:26:20;4.10;99.90
60027;DHT22;45891;53.006;6.512;2024-03-07T00:28:46;4.10;99.90
60027;DHT22;45891;53.006;6.512;2024-03-07T00:31:12;4.00;99.90
60027;DHT22;45891;53.006;6.512;2024-03-07T00:33:39;4.00;99.90
60027;DHT22;45891;53.006;6.512;2024-03-07T00:36:05;4.00;99.90
60027;DHT22;45891;53.006;6.512;2024-03-07T00:38:31;4.00;99.90
60027;DHT22;45891;53.006;6.512;2024-03-07T00:40:57;4.00;99.90
60027;DHT22;45891;53.006;6.512;2024-03-07T00:43:23;4.00;99.90
60027;DHT22;45891;53.006;6.512;2024-03-07T00:45:49;4.00;99.90
60027;DHT22;45891;53.006;6.512;2024-03-07T00:48:16;3.90;99.90
60027;DHT22;45891;53.006;6.512;2024-03-07T00:50:42;3.90;99.90
60027;DHT22;45891;53.006;6.512;2024-03-07T00:53:08;3.80;99.90
60027;DHT22;45891;53.006;6.512;2024-03-07T00:55:34;3.80;99.90
60027;DHT22;45891;53.006;6.512;2024-03-07T00:58:00;3.80;99.90
60027;DHT22;45891;53.006;6.512;2024-03-07T01:00:26;3.80;99.90
60027;DHT22;45891;53.006;6.512;2024-03-07T01:02:54;3.80;99.90
60027;DHT22;45891;53.006;6.512;2024-03-07T01:05:20;3.70;99.90
60027;DHT22;45891;53.006;6.512;2024-03-07T01:07:46;3.70;99.90
60027;DHT22;45891;53.006;6.512;2024-03-07T01:10:13;3.70;99.90
60027;DHT22;45891;53.006;6.512;2024-03-07T01:12:39;3.70;99.90
60027;DHT22;45891;53.006;6.512;2024-03-07T01:15:05;3.70;99.90
60027;DHT22;45891;53.006;6.512;2024-03-07T01:17:32;3.70;99.90
60027;DHT22;45891;53.006;6.512;2024-03-07T01:19:58;3.70;99.90
60027;DHT22;45891;53.006;6.512;2024-03-07T01:22:24;3.60;99.90
60027;DHT22;45891;53.006;6.512;2024-03-07T01:24:50;3.60;99.90
60027;DHT22;45891;53.006;6.512;2024-03-07T01:27:19;3.60;99.90
60027;DHT22;45891;53.006;6.512;2024-03-07T01:29:45;3.50;99.90
60027;DHT22;45891;53.006;6.512;2024-03-07T01:32:11;3.50;99.90
60027;DHT22;45891;53.006;6.512;2024-03-07T01:34:36;3.50;99.90
60027;DHT22;45891;53.006;6.512;2024-03-07T01:37:02;3.50;99.90
60027;DHT22;45891;53.006;6.512;2024-03-07T01:39:28;3.40;99.90
60027;DHT22;45891;53.006;6.512;2024-03-07T01:41:54;3.40;99.90
60027;DHT22;45891;53.006;6.512;2024-03-07T01:44:20;3.30;99.90
60027;DHT22;45891;53.006;6.512;2024-03-07T01:46:46;3.30;99.90
60027;DHT22;45891;53.006;6.512;2024-03-07T01:49:12;3.30;99.90
60027;DHT22;45891;53.006;6.512;2024-03-07T01:51:38;3.20;99.90
60027;DHT22;45891;53.006;6.512;2024-03-07T01:54:05;3.20;99.90
60027;DHT22;45891;53.006;6.512;2024-03-07T01:56:33;3.10;99.90
60027;DHT22;45891;53.006;6.512;2024-03-07T01:59:00;3.10;99.90
60027;DHT22;45891;53.006;6.512;2024-03-07T02:01:27;3.00;99.90
60027;DHT22;45891;53.006;6.512;2024-03-07T02:03:53;3.00;99.90
60027;DHT22;45891;53.006;6.512;2024-03-07T02:06:19;3.00;99.90
60027;DHT22;45891;53.006;6.512;2024-03-07T02:08:45;2.90;99.90
60027;DHT22;45891;53.006;6.512;2024-03-07T02:11:12;2.90;99.90
60027;DHT22;45891;53.006;6.512;2024-03-07T02:13:39;2.90;99.90
60027;DHT22;45891;53.006;6.512;2024-03-07T02:16:05;2.90;99.90
60027;DHT22;45891;53.006;6.512;2024-03-07T02:18:31;2.80;99.90
60027;DHT22;45891;53.006;6.512;2024-03-07T02:20:56;2.80;99.90
60027;DHT22;45891;53.006;6.512;2024-03-07T02:23:22;2.80;99.90
60027;DHT22;45891;53.006;6.512;2024-03-07T02:25:48;2.80;99.90
60027;DHT22;45891;53.006;6.512;2024-03-07T02:28:14;2.70;99.90
60027;DHT22;45891;53.006;6.512;2024-03-07T02:30:40;2.70;99.90
60027;DHT22;45891;53.006;6.512;2024-03-07T02:33:06;2.70;99.90
60027;DHT22;45891;53.006;6.512;2024-03-07T02:35:35;2.70;99.90
60027;DHT22;45891;53.006;6.512;2024-03-07T02:38:02;2.70;99.90
60027;DHT22;45891;53.006;6.512;2024-03-07T02:40:28;2.70;99.90
60027;DHT22;45891;53.006;6.512;2024-03-07T02:42:55;2.60;99.90
60027;DHT22;45891;53.006;6.512;2024-03-07T02:45:21;2.60;99.90
60027;DHT22;45891;53.006;6.512;2024-03-07T02:47:47;2.60;99.90
60027;DHT22;45891;53.006;6.512;2024-03-07T02:50:13;2.60;99.90
60027;DHT22;45891;53.006;6.512;2024-03-07T02:52:40;2.60;99.90
60027;DHT22;45891;53.006;6.512;2024-03-07T02:55:06;2.60;99.90
60027;DHT22;45891;53.006;6.512;2024-03-07T02:57:36;2.60;99.90
60027;DHT22;45891;53.006;6.512;2024-03-07T03:00:02;2.60;99.90
60027;DHT22;45891;53.006;6.512;2024-03-07T03:02:28;2.60;99.90
60027;DHT22;45891;53.006;6.512;2024-03-07T03:04:54;2.50;99.90
60027;DHT22;45891;53.006;6.512;2024-03-07T03:07:20;2.50;99.90
60027;DHT22;45891;53.006;6.512;2024-03-07T03:09:46;2.40;99.90
60027;DHT22;45891;53.006;6.512;2024-03-07T03:12:12;2.40;99.90
60027;DHT22;45891;53.006;6.512;2024-03-07T03:14:38;2.40;99.90
60027;DHT22;45891;53.006;6.512;2024-03-07T03:17:05;2.30;99.90
60027;DHT22;45891;53.006;6.512;2024-03-07T03:19:34;2.30;99.90
60027;DHT22;45891;53.006;6.512;2024-03-07T03:22:00;2.30;99.90
60027;DHT22;45891;53.006;6.512;2024-03-07T03:24:26;2.20;99.90
60027;DHT22;45891;53.006;6.512;2024-03-07T03:26:52;2.20;99.90
60027;DHT22;45891;53.006;6.512;2024-03-07T03:29:18;2.20;99.90
60027;DHT22;45891;53.006;6.512;2024-03-07T03:31:44;2.20;99.90
60027;DHT22;45891;53.006;6.512;2024-03-07T03:34:10;2.10;99.90
60027;DHT22;45891;53.006;6.512;2024-03-07T03:36:36;2.10;99.90
60027;DHT22;45891;53.006;6.512;2024-03-07T03:39:02;2.10;99.90
60027;DHT22;45891;53.006;6.512;2024-03-07T03:41:28;2.10;99.90
60027;DHT22;45891;53.006;6.512;2024-03-07T03:43:54;2.10;99.90
60027;DHT22;45891;53.006;6.512;2024-03-07T03:46:20;2.00;99.90
60027;DHT22;45891;53.006;6.512;2024-03-07T03:48:45;2.00;99.90
60027;DHT22;45891;53.006;6.512;2024-03-07T03:51:11;2.00;99.90
60027;DHT22;45891;53.006;6.512;2024-03-07T03:53:38;2.00;99.90
60027;DHT22;45891;53.006;6.512;2024-03-07T03:56:04;2.00;99.90
60027;DHT22;45891;53.006;6.512;2024-03-07T03:58:31;2.00;99.90
60027;DHT22;45891;53.006;6.512;2024-03-07T04:00:57;2.00;99.90
60027;DHT22;45891;53.006;6.512;2024-03-07T04:03:26;1.90;99.90
60027;DHT22;45891;53.006;6.512;2024-03-07T04:05:52;1.90;99.90
60027;DHT22;45891;53.006;6.512;2024-03-07T04:08:18;1.90;99.90
60027;DHT22;45891;53.006;6.512;2024-03-07T04:10:45;1.90;99.90
60027;DHT22;45891;53.006;6.512;2024-03-07T04:13:11;1.90;99.90
60027;DHT22;45891;53.006;6.512;2024-03-07T04:15:37;1.90;99.90
60027;DHT22;45891;53.006;6.512;2024-03-07T04:18:03;1.80;99.90
60027;DHT22;45891;53.006;6.512;2024-03-07T04:20:29;1.80;99.90
60027;DHT22;45891;53.006;6.512;2024-03-07T04:22:55;1.80;99.90
60027;DHT22;45891;53.006;6.512;2024-03-07T04:25:21;1.70;99.90
60027;DHT22;45891;53.006;6.512;2024-03-07T04:27:47;1.70;99.90
60027;DHT22;45891;53.006;6.512;2024-03-07T04:30:15;1.70;99.90
60027;DHT22;45891;53.006;6.512;2024-03-07T04:32:42;1.70;99.90
60027;DHT22;45891;53.006;6.512;2024-03-07T04:35:08;1.70;99.90
60027;DHT22;45891;53.006;6.512;2024-03-07T04:37:36;1.70;99.90
60027;DHT22;45891;53.006;6.512;2024-03-07T04:40:05;1.70;99.90
60027;DHT22;45891;53.006;6.512;2024-03-07T04:42:47;1.70;99.90
60027;DHT22;45891;53.006;6.512;2024-03-07T04:45:17;1.60;99.90
60027;DHT22;45891;53.006;6.512;2024-03-07T04:47:43;1.60;99.90
60027;DHT22;45891;53.006;6.512;2024-03-07T04:50:10;1.60;99.90
60027;DHT22;45891;53.006;6.512;2024-03-07T04:52:37;1.60;99.90
60027;DHT22;45891;53.006;6.512;2024-03-07T04:55:04;1.60;99.90
60027;DHT22;45891;53.006;6.512;2024-03-07T04:57:30;1.60;99.90
60027;DHT22;45891;53.006;6.512;2024-03-07T04:59:56;1.60;99.90
60027;DHT22;45891;53.006;6.512;2024-03-07T05:02:22;1.60;99.90
60027;DHT22;45891;53.006;6.512;2024-03-07T05:04:49;1.50;99.90
60027;DHT22;45891;53.006;6.512;2024-03-07T05:07:16;1.50;99.90
60027;DHT22;45891;53.006;6.512;2024-03-07T05:09:42;1.50;99.90
60027;DHT22;45891;53.006;6.512;2024-03-07T05:12:08;1.40;99.90
60027;DHT22;45891;53.006;6.512;2024-03-07T05:14:34;1.40;99.90
60027;DHT22;45891;53.006;6.512;2024-03-07T05:17:00;1.40;99.90
60027;DHT22;45891;53.006;6.512;2024-03-07T05:19:34;1.30;99.90
60027;DHT22;45891;53.006;6.512;2024-03-07T05:22:01;1.30;99.90
60027;DHT22;45891;53.006;6.512;2024-03-07T05:24:27;1.20;99.90
60027;DHT22;45891;53.006;6.512;2024-03-07T05:26:53;1.20;99.90
60027;DHT22;45891;53.006;6.512;2024-03-07T05:29:19;1.20;99.90
60027;DHT22;45891;53.006;6.512;2024-03-07T05:31:45;1.20;99.90
60027;DHT22;45891;53.006;6.512;2024-03-07T05:34:18;1.20;99.90
60027;DHT22;45891;53.006;6.512;2024-03-07T05:36:48;1.10;99.90
60027;DHT22;45891;53.006;6.512;2024-03-07T05:39:15;1.10;99.90
60027;DHT22;45891;53.006;6.512;2024-03-07T05:41:41;1.10;99.90
60027;DHT22;45891;53.006;6.512;2024-03-07T05:44:08;1.00;99.90
60027;DHT22;45891;53.006;6.512;2024-03-07T05:46:37;1.00;99.90
60027;DHT22;45891;53.006;6.512;2024-03-07T05:49:10;1.00;99.90
60027;DHT22;45891;53.006;6.512;2024-03-07T05:51:36;0.90;99.90
60027;DHT22;45891;53.006;6.512;2024-03-07T05:54:02;0.90;99.90
60027;DHT22;45891;53.006;6.512;2024-03-07T05:56:32;0.90;99.90
60027;DHT22;45891;53.006;6.512;2024-03-07T05:59:02;0.90;99.90
60027;DHT22;45891;53.006;6.512;2024-03-07T06:01:30;0.90;99.90
60027;DHT22;45891;53.006;6.512;2024-03-07T06:04:03;0.90;99.90
60027;DHT22;45891;53.006;6.512;2024-03-07T06:06:33;0.80;99.90
60027;DHT22;45891;53.006;6.512;2024-03-07T06:09:07;0.80;99.90
60027;DHT22;45891;53.006;6.512;2024-03-07T06:11:36;0.80;99.90
60027;DHT22;45891;53.006;6.512;2024-03-07T06:14:09;0.80;99.90
60027;DHT22;45891;53.006;6.512;2024-03-07T06:16:36;0.80;99.90
60027;DHT22;45891;53.006;6.512;2024-03-07T06:19:02;0.80;99.90
60027;DHT22;45891;53.006;6.512;2024-03-07T06:21:28;0.80;99.90
60027;DHT22;45891;53.006;6.512;2024-03-07T06:23:56;0.80;99.90
60027;DHT22;45891;53.006;6.512;2024-03-07T06:26:29;0.80;99.90
60027;DHT22;45891;53.006;6.512;2024-03-07T06:29:10;0.80;99.90
60027;DHT22;45891;53.006;6.512;2024-03-07T06:31:37;0.80;99.90
60027;DHT22;45891;53.006;6.512;2024-03-07T06:34:03;0.80;99.90
60027;DHT22;45891;53.006;6.512;2024-03-07T06:36:29;0.80;99.90
60027;DHT22;45891;53.006;6.512;2024-03-07T06:38:55;0.90;99.90
60027;DHT22;45891;53.006;6.512;2024-03-07T06:41:21;0.90;99.90
60027;DHT22;45891;53.006;6.512;2024-03-07T06:43:48;0.90;99.90
60027;DHT22;45891;53.006;6.512;2024-03-07T06:46:15;0.90;99.90
60027;DHT22;45891;53.006;6.512;2024-03-07T06:48:42;0.90;99.90
60027;DHT22;45891;53.006;6.512;2024-03-07T06:51:08;0.90;99.90
60027;DHT22;45891;53.006;6.512;2024-03-07T06:53:34;1.00;99.90
60027;DHT22;45891;53.006;6.512;2024-03-07T06:56:00;1.00;99.90
60027;DHT22;45891;53.006;6.512;2024-03-07T06:58:26;1.00;99.90
60027;DHT22;45891;53.006;6.512;2024-03-07T07:00:52;1.10;99.90
60027;DHT22;45891;53.006;6.512;2024-03-07T07:03:21;1.10;99.90
60027;DHT22;45891;53.006;6.512;2024-03-07T07:05:48;1.10;99.90
60027;DHT22;45891;53.006;6.512;2024-03-07T07:08:14;1.20;99.90
60027;DHT22;45891;53.006;6.512;2024-03-07T07:10:40;1.20;99.90
60027;DHT22;45891;53.006;6.512;2024-03-07T07:13:06;1.30;99.90
60027;DHT22;45891;53.006;6.512;2024-03-07T07:15:32;1.40;99.90
60027;DHT22;45891;53.006;6.512;2024-03-07T07:17:58;1.50;99.90
60027;DHT22;45891;53.006;6.512;2024-03-07T07:20:25;1.50;99.90
60027;DHT22;45891;53.006;6.512;2024-03-07T07:22:51;1.60;99.90
60027;DHT22;45891;53.006;6.512;2024-03-07T07:25:18;1.70;99.90
60027;DHT22;45891;53.006;6.512;2024-03-07T07:27:47;1.70;99.90
60027;DHT22;45891;53.006;6.512;2024-03-07T07:30:14;1.80;99.90
60027;DHT22;45891;53.006;6.512;2024-03-07T07:32:40;1.80;99.90
60027;DHT22;45891;53.006;6.512;2024-03-07T07:35:07;1.90;99.90
60027;DHT22;45891;53.006;6.512;2024-03-07T07:37:35;1.90;99.90
60027;DHT22;45891;53.006;6.512;2024-03-07T07:40:02;1.90;99.90
60027;DHT22;45891;53.006;6.512;2024-03-07T07:42:28;2.00;99.90
60027;DHT22;45891;53.006;6.512;2024-03-07T07:44:54;1.90;99.90
60027;DHT22;45891;53.006;6.512;2024-03-07T07:47:20;1.90;99.90
60027;DHT22;45891;53.006;6.512;2024-03-07T07:49:46;1.90;99.90
60027;DHT22;45891;53.006;6.512;2024-03-07T07:52:12;1.90;99.90
60027;DHT22;45891;53.006;6.512;2024-03-07T07:54:42;1.90;99.90
60027;DHT22;45891;53.006;6.512;2024-03-07T07:57:08;1.90;99.90
60027;DHT22;45891;53.006;6.512;2024-03-07T07:59:34;2.00;99.90
60027;DHT22;45891;53.006;6.512;2024-03-07T08:02:02;2.00;99.90
60027;DHT22;45891;53.006;6.512;2024-03-07T08:04:31;2.20;99.90
60027;DHT22;45891;53.006;6.512;2024-03-07T08:06:58;2.10;99.90
60027;DHT22;45891;53.006;6.512;2024-03-07T08:09:24;2.20;99.90
60027;DHT22;45891;53.006;6.512;2024-03-07T08:11:50;2.10;99.90
60027;DHT22;45891;53.006;6.512;2024-03-07T08:14:18;2.10;99.90
60027;DHT22;45891;53.006;6.512;2024-03-07T08:16:48;2.00;99.90
60027;DHT22;45891;53.006;6.512;2024-03-07T08:19:14;2.10;99.90
60027;DHT22;45891;53.006;6.512;2024-03-07T08:21:40;2.20;99.90
60027;DHT22;45891;53.006;6.512;2024-03-07T08:24:06;2.20;99.90
60027;DHT22;45891;53.006;6.512;2024-03-07T08:26:36;2.10;99.90
60027;DHT22;45891;53.006;6.512;2024-03-07T08:29:09;2.20;99.90
60027;DHT22;45891;53.006;6.512;2024-03-07T08:31:35;2.20;99.90
60027;DHT22;45891;53.006;6.512;2024-03-07T08:34:01;2.30;99.90
60027;DHT22;45891;53.006;6.512;2024-03-07T08:36:27;2.40;99.90
60027;DHT22;45891;53.006;6.512;2024-03-07T08:38:54;2.30;99.90
60027;DHT22;45891;53.006;6.512;2024-03-07T08:41:20;2.40;99.90
60027;DHT22;45891;53.006;6.512;2024-03-07T08:43:46;2.40;99.90
60027;DHT22;45891;53.006;6.512;2024-03-07T08:46:12;2.30;99.90
60027;DHT22;45891;53.006;6.512;2024-03-07T08:48:39;2.30;99.90
60027;DHT22;45891;53.006;6.512;2024-03-07T08:51:04;2.30;99.90
60027;DHT22;45891;53.006;6.512;2024-03-07T08:53:31;2.30;99.90
60027;DHT22;45891;53.006;6.512;2024-03-07T08:55:56;2.40;99.90
60027;DHT22;45891;53.006;6.512;2024-03-07T08:58:24;2.40;99.90
60027;DHT22;45891;53.006;6.512;2024-03-07T09:00:50;2.50;99.90
60027;DHT22;45891;53.006;6.512;2024-03-07T09:03:18;2.50;99.90
60027;DHT22;45891;53.006;6.512;2024-03-07T09:05:44;2.50;99.90
60027;DHT22;45891;53.006;6.512;2024-03-07T09:08:10;2.50;99.90
60027;DHT22;45891;53.006;6.512;2024-03-07T09:10:37;2.60;99.90
60027;DHT22;45891;53.006;6.512;2024-03-07T09:13:06;2.50;99.90
60027;DHT22;45891;53.006;6.512;2024-03-07T09:15:32;2.60;99.90
60027;DHT22;45891;53.006;6.512;2024-03-07T09:17:59;2.70;99.90
60027;DHT22;45891;53.006;6.512;2024-03-07T09:20:26;2.70;99.90
60027;DHT22;45891;53.006;6.512;2024-03-07T09:22:52;2.70;99.90
60027;DHT22;45891;53.006;6.512;2024-03-07T09:25:20;2.70;99.90
60027;DHT22;45891;53.006;6.512;2024-03-07T09:27:46;2.70;99.90
60027;DHT22;45891;53.006;6.512;2024-03-07T09:30:12;2.70;99.90
60027;DHT22;45891;53.006;6.512;2024-03-07T09:32:40;2.70;99.90
60027;DHT22;45891;53.006;6.512;2024-03-07T09:35:10;2.70;99.90
60027;DHT22;45891;53.006;6.512;2024-03-07T09:37:39;2.80;99.90
60027;DHT22;45891;53.006;6.512;2024-03-07T09:40:06;2.80;99.90
60027;DHT22;45891;53.006;6.512;2024-03-07T09:42:32;2.80;99.90
60027;DHT22;45891;53.006;6.512;2024-03-07T09:44:59;2.90;99.90
60027;DHT22;45891;53.006;6.512;2024-03-07T09:47:27;2.80;99.90
60027;DHT22;45891;53.006;6.512;2024-03-07T09:49:53;2.70;99.90
60027;DHT22;45891;53.006;6.512;2024-03-07T09:52:19;2.80;99.90
60027;DHT22;45891;53.006;6.512;2024-03-07T09:54:46;2.80;99.90
60027;DHT22;45891;53.006;6.512;2024-03-07T09:57:12;2.80;99.90
60027;DHT22;45891;53.006;6.512;2024-03-07T09:59:38;2.90;99.90
60027;DHT22;45891;53.006;6.512;2024-03-07T10:02:07;3.00;99.90
60027;DHT22;45891;53.006;6.512;2024-03-07T10:07:07;2.90;99.90
60027;DHT22;45891;53.006;6.512;2024-03-07T10:09:38;3.10;99.90
60027;DHT22;45891;53.006;6.512;2024-03-07T10:12:04;3.30;99.90
60027;DHT22;45891;53.006;6.512;2024-03-07T10:14:33;3.50;99.90
60027;DHT22;45891;53.006;6.512;2024-03-07T10:16:59;3.70;99.90
60027;DHT22;45891;53.006;6.512;2024-03-07T10:19:25;3.80;99.90
60027;DHT22;45891;53.006;6.512;2024-03-07T10:21:51;4.00;99.90
60027;DHT22;45891;53.006;6.512;2024-03-07T10:24:24;4.10;99.90
60027;DHT22;45891;53.006;6.512;2024-03-07T10:26:50;4.20;99.90
60027;DHT22;45891;53.006;6.512;2024-03-07T10:29:17;4.30;99.90
60027;DHT22;45891;53.006;6.512;2024-03-07T10:31:42;4.30;99.90
60027;DHT22;45891;53.006;6.512;2024-03-07T10:34:10;4.30;99.90
60027;DHT22;45891;53.006;6.512;2024-03-07T10:36:37;4.30;99.90
60027;DHT22;45891;53.006;6.512;2024-03-07T10:39:05;4.30;99.90
60027;DHT22;45891;53.006;6.512;2024-03-07T10:41:43;4.40;99.90
60027;DHT22;45891;53.006;6.512;2024-03-07T10:44:10;4.50;99.90
60027;DHT22;45891;53.006;6.512;2024-03-07T10:46:39;4.50;99.90
60027;DHT22;45891;53.006;6.512;2024-03-07T10:49:06;4.60;99.90
60027;DHT22;45891;53.006;6.512;2024-03-07T10:51:40;4.60;99.90
60027;DHT22;45891;53.006;6.512;2024-03-07T10:54:19;4.80;99.90
60027;DHT22;45891;53.006;6.512;2024-03-07T10:56:56;4.80;99.90
60027;DHT22;45891;53.006;6.512;2024-03-07T10:59:27;4.80;99.90
60027;DHT22;45891;53.006;6.512;2024-03-07T11:01:59;4.80;99.90
60027;DHT22;45891;53.006;6.512;2024-03-07T11:04:25;5.00;99.90
60027;DHT22;45891;53.006;6.512;2024-03-07T11:06:52;5.10;99.90
60027;DHT22;45891;53.006;6.512;2024-03-07T11:09:19;5.60;99.90
60027;DHT22;45891;53.006;6.512;2024-03-07T11:12:01;5.40;99.90
60027;DHT22;45891;53.006;6.512;2024-03-07T11:14:29;5.40;99.90
60027;DHT22;45891;53.006;6.512;2024-03-07T11:16:55;5.60;99.90
60027;DHT22;45891;53.006;6.512;2024-03-07T11:19:29;5.50;99.90
60027;DHT22;45891;53.006;6.512;2024-03-07T11:21:57;5.50;99.90
60027;DHT22;45891;53.006;6.512;2024-03-07T11:26:52;5.30;99.90
60027;DHT22;45891;53.006;6.512;2024-03-07T11:32:06;5.30;99.90
60027;DHT22;45891;53.006;6.512;2024-03-07T11:34:32;5.30;99.90
60027;DHT22;45891;53.006;6.512;2024-03-07T11:37:02;5.30;99.90
60027;DHT22;45891;53.006;6.512;2024-03-07T11:39:46;5.20;99.90
60027;DHT22;45891;53.006;6.512;2024-03-07T11:42:19;5.30;99.90
60027;DHT22;45891;53.006;6.512;2024-03-07T11:44:54;5.30;99.90
60027;DHT22;45891;53.006;6.512;2024-03-07T11:47:23;5.30;99.90
60027;DHT22;45891;53.006;6.512;2024-03-07T11:49:50;5.30;99.90
60027;DHT22;45891;53.006;6.512;2024-03-07T11:52:18;5.40;99.90
60027;DHT22;45891;53.006;6.512;2024-03-07T11:54:44;5.40;99.90
60027;DHT22;45891;53.006;6.512;2024-03-07T11:57:17;5.50;99.90
60027;DHT22;45891;53.006;6.512;2024-03-07T11:59:45;5.50;99.90
60027;DHT22;45891;53.006;6.512;2024-03-07T12:02:14;5.60;99.90
60027;DHT22;45891;53.006;6.512;2024-03-07T12:04:47;5.80;99.90
60027;DHT22;45891;53.006;6.512;2024-03-07T12:07:14;5.70;99.90
60027;DHT22;45891;53.006;6.512;2024-03-07T12:09:43;5.80;99.90
60027;DHT22;45891;53.006;6.512;2024-03-07T12:12:11;5.90;99.90
60027;DHT22;45891;53.006;6.512;2024-03-07T12:14:38;6.10;99.90
60027;DHT22;45891;53.006;6.512;2024-03-07T12:17:04;6.40;99.90
60027;DHT22;45891;53.006;6.512;2024-03-07T12:19:32;6.90;99.90
60027;DHT22;45891;53.006;6.512;2024-03-07T12:22:01;7.40;99.90
60027;DHT22;45891;53.006;6.512;2024-03-07T12:24:28;7.90;99.90
60027;DHT22;45891;53.006;6.512;2024-03-07T12:27:04;8.60;99.90
60027;DHT22;45891;53.006;6.512;2024-03-07T12:29:30;9.20;99.90
60027;DHT22;45891;53.006;6.512;2024-03-07T12:31:56;9.90;99.90
60027;DHT22;45891;53.006;6.512;2024-03-07T12:34:22;9.90;99.90
60027;DHT22;45891;53.006;6.512;2024-03-07T12:36:52;9.50;99.90
60027;DHT22;45891;53.006;6.512;2024-03-07T12:39:22;8.90;99.90
60027;DHT22;45891;53.006;6.512;2024-03-07T12:41:52;8.70;99.90
60027;DHT22;45891;53.006;6.512;2024-03-07T12:44:21;8.40;99.90
60027;DHT22;45891;53.006;6.512;2024-03-07T12:46:53;8.20;99.90
60027;DHT22;45891;53.006;6.512;2024-03-07T12:49:22;8.10;99.90
60027;DHT22;45891;53.006;6.512;2024-03-07T12:51:53;7.80;99.90
60027;DHT22;45891;53.006;6.512;2024-03-07T12:54:20;7.50;99.90
60027;DHT22;45891;53.006;6.512;2024-03-07T12:56:46;7.40;99.90
60027;DHT22;45891;53.006;6.512;2024-03-07T12:59:12;7.30;99.90
60027;DHT22;45891;53.006;6.512;2024-03-07T13:01:38;7.10;99.90
60027;DHT22;45891;53.006;6.512;2024-03-07T13:04:13;7.10;99.90
60027;DHT22;45891;53.006;6.512;2024-03-07T13:06:39;6.90;99.90
60027;DHT22;45891;53.006;6.512;2024-03-07T13:09:12;6.80;99.90
60027;DHT22;45891;53.006;6.512;2024-03-07T13:11:38;6.80;99.90
60027;DHT22;45891;53.006;6.512;2024-03-07T13:14:07;6.70;99.90
60027;DHT22;45891;53.006;6.512;2024-03-07T13:16:33;6.70;99.90
60027;DHT22;45891;53.006;6.512;2024-03-07T13:18:59;6.70;99.90
60027;DHT22;45891;53.006;6.512;2024-03-07T13:21:25;6.70;99.90
60027;DHT22;45891;53.006;6.512;2024-03-07T13:23:52;6.70;99.90
60027;DHT22;45891;53.006;6.512;2024-03-07T13:26:20;6.70;99.90
60027;DHT22;45891;53.006;6.512;2024-03-07T13:28:50;6.70;99.90
60027;DHT22;45891;53.006;6.512;2024-03-07T13:31:16;6.80;99.90
60027;DHT22;45891;53.006;6.512;2024-03-07T13:33:43;6.90;99.90
60027;DHT22;45891;53.006;6.512;2024-03-07T13:36:09;6.90;99.90
60027;DHT22;45891;53.006;6.512;2024-03-07T13:38:35;6.90;99.90
60027;DHT22;45891;53.006;6.512;2024-03-07T13:41:02;6.90;99.90
60027;DHT22;45891;53.006;6.512;2024-03-07T13:43:30;6.80;99.90
60027;DHT22;45891;53.006;6.512;2024-03-07T13:45:59;6.70;99.90
60027;DHT22;45891;53.006;6.512;2024-03-07T13:48:25;6.70;99.90
60027;DHT22;45891;53.006;6.512;2024-03-07T13:50:51;6.80;99.90
60027;DHT22;45891;53.006;6.512;2024-03-07T13:53:20;6.80;99.90
60027;DHT22;45891;53.006;6.512;2024-03-07T13:56:06;6.90;99.90
60027;DHT22;45891;53.006;6.512;2024-03-07T14:06:42;6.80;99.90
60027;DHT22;45891;53.006;6.512;2024-03-07T14:09:24;6.90;99.90
60027;DHT22;45891;53.006;6.512;2024-03-07T14:14:43;6.80;99.90
60027;DHT22;45891;53.006;6.512;2024-03-07T14:22:48;6.90;99.90
60027;DHT22;45891;53.006;6.512;2024-03-07T14:33:20;6.80;99.90
60027;DHT22;45891;53.006;6.512;2024-03-07T14:38:29;6.90;99.90
60027;DHT22;45891;53.006;6.512;2024-03-07T14:40:55;7.00;99.90
60027;DHT22;45891;53.006;6.512;2024-03-07T14:43:22;7.10;99.90
60027;DHT22;45891;53.006;6.512;2024-03-07T14:45:49;7.10;99.90
60027;DHT22;45891;53.006;6.512;2024-03-07T14:48:16;7.10;99.90
60027;DHT22;45891;53.006;6.512;2024-03-07T14:50:43;7.10;99.90
60027;DHT22;45891;53.006;6.512;2024-03-07T14:53:13;7.20;99.90
60027;DHT22;45891;53.006;6.512;2024-03-07T14:55:40;7.20;99.90
60027;DHT22;45891;53.006;6.512;2024-03-07T14:58:06;7.30;99.90
60027;DHT22;45891;53.006;6.512;2024-03-07T15:00:36;7.30;99.90
60027;DHT22;45891;53.006;6.512;2024-03-07T15:03:10;7.20;99.90
60027;DHT22;45891;53.006;6.512;2024-03-07T15:05:36;7.20;99.90
60027;DHT22;45891;53.006;6.512;2024-03-07T15:08:02;7.20;99.90
60027;DHT22;45891;53.006;6.512;2024-03-07T15:10:30;7.20;99.90
60027;DHT22;45891;53.006;6.512;2024-03-07T15:12:57;7.30;99.90
60027;DHT22;45891;53.006;6.512;2024-03-07T15:15:23;7.30;99.90
60027;DHT22;45891;53.006;6.512;2024-03-07T15:17:56;7.30;99.90
60027;DHT22;45891;53.006;6.512;2024-03-07T15:20:23;7.40;99.90
60027;DHT22;45891;53.006;6.512;2024-03-07T15:22:54;7.40;99.90
60027;DHT22;45891;53.006;6.512;2024-03-07T15:25:20;7.50;99.90
60027;DHT22;45891;53.006;6.512;2024-03-07T15:27:48;7.40;99.90
60027;DHT22;45891;53.006;6.512;2024-03-07T15:30:15;7.40;99.90
60027;DHT22;45891;53.006;6.512;2024-03-07T15:32:41;7.40;99.90
60027;DHT22;45891;53.006;6.512;2024-03-07T15:35:08;7.50;99.90
60027;DHT22;45891;53.006;6.512;2024-03-07T15:37:47;7.50;99.90
60027;DHT22;45891;53.006;6.512;2024-03-07T15:40:17;7.40;99.90
60027;DHT22;45891;53.006;6.512;2024-03-07T15:42:46;7.40;99.90
60027;DHT22;45891;53.006;6.512;2024-03-07T15:45:15;7.40;99.90
60027;DHT22;45891;53.006;6.512;2024-03-07T15:47:51;7.30;99.90
60027;DHT22;45891;53.006;6.512;2024-03-07T15:50:18;7.30;99.90
60027;DHT22;45891;53.006;6.512;2024-03-07T15:52:53;7.30;99.90
60027;DHT22;45891;53.006;6.512;2024-03-07T15:55:19;7.30;99.90
60027;DHT22;45891;53.006;6.512;2024-03-07T15:57:50;7.20;99.90
60027;DHT22;45891;53.006;6.512;2024-03-07T16:00:19;7.20;99.90
60027;DHT22;45891;53.006;6.512;2024-03-07T16:02:55;7.10;99.90
60027;DHT22;45891;53.006;6.512;2024-03-07T16:05:28;7.10;99.90
60027;DHT22;45891;53.006;6.512;2024-03-07T16:07:54;7.00;99.90
60027;DHT22;45891;53.006;6.512;2024-03-07T16:10:22;7.00;99.90
60027;DHT22;45891;53.006;6.512;2024-03-07T16:12:49;6.90;99.90
60027;DHT22;45891;53.006;6.512;2024-03-07T16:15:15;6.90;99.90
60027;DHT22;45891;53.006;6.512;2024-03-07T16:17:41;6.80;99.90
60027;DHT22;45891;53.006;6.512;2024-03-07T16:20:07;6.80;99.90
60027;DHT22;45891;53.006;6.512;2024-03-07T16:22:46;6.80;99.90